»·PEaware :: N282BC KSAN-KPSP

N282BC :: KSAN-KPSP

FLIGHT INFORMATION

Flight Status: Arrived
Operator: Privately registered:
United States
More flights under this callsign
Pilot: Lev B. (11997)
Aircraft: CESSNA 208 CARAVAN
(C208)
More flights by this aircraft type
Origin: KSAN San Diego Intl-Lindbergh
United States
Destination: KPSP Palm Springs Intl
United States
More flights between these airports :: More routes between these airports
Route: +JLI V208 TRM KPSP
File this flight plan on PilotEdge
Remarks:
Altitude:
(Current/Filed)
10,000ft
Speed:
(Current/Filed)
184kts
Departed: 21-Sep-17 01:48 PM
Arrived: 21-Sep-17 02:31 PM
Distance/Time
Traveled:
74nm/0:43
Distance/Time
To Go:
Arrived

Flight Plot

Page will automatically refresh every two minutes.

Flight plan parsing failed; only flown route is shown


Map Options




Map Legend


Flown Route
Filed Route
Departure Airport
Arrival Airport
Navaid (VOR, NDB)
Fix

Horizontal Profiles

Position Reports

Time Latitude Longitude Heading Altitude Ground
Speed
21-Sep-17 13:40 32.735104 -117.183880 59 18ft 0kts
21-Sep-17 13:41 32.735104 -117.183880 0 18ft 0kts
21-Sep-17 13:42 32.735260 -117.183880 222 18ft 0kts
21-Sep-17 13:43 32.735260 -117.183880 222 18ft 0kts
21-Sep-17 13:44 32.735260 -117.183880 222 18ft 0kts
21-Sep-17 13:45 32.735260 -117.183880 222 18ft 0kts
21-Sep-17 13:46 32.735260 -117.183880 222 18ft 0kts
21-Sep-17 13:47 32.735260 -117.183880 222 18ft 0kts
21-Sep-17 13:48 32.735260 -117.183880 222 18ft 0kts
21-Sep-17 13:49 32.735256 -117.183884 221 18ft 1kts
21-Sep-17 13:50 32.732273 -117.179496 106 20ft 32kts
21-Sep-17 13:51 32.730883 -117.175396 152 23ft 0kts
21-Sep-17 13:52 32.735740 -117.195205 306 1269ft 95kts
21-Sep-17 13:53 32.757137 -117.214466 320 2059ft 151kts
21-Sep-17 13:54 32.793659 -117.246851 320 2046ft 169kts
21-Sep-17 13:55 32.837631 -117.286170 320 2043ft 171kts
21-Sep-17 13:56 32.874898 -117.319249 320 2945ft 154kts
21-Sep-17 13:57 32.908470 -117.347631 320 4783ft 147kts
21-Sep-17 13:58 32.939031 -117.352899 49 6172ft 159kts
21-Sep-17 13:59 32.955781 -117.305458 76 7781ft 158kts
21-Sep-17 14:00 32.968274 -117.256125 76 9283ft 160kts
21-Sep-17 14:01 32.981775 -117.203444 75 10040ft 181kts
21-Sep-17 14:02 32.996828 -117.145111 75 10041ft 189kts
21-Sep-17 14:03 33.012280 -117.085401 75 10043ft 190kts
21-Sep-17 14:04 33.027723 -117.025571 76 10046ft 190kts
21-Sep-17 14:05 33.043169 -116.965570 76 10050ft 190kts
21-Sep-17 14:06 33.058584 -116.905574 76 10054ft 188kts
21-Sep-17 14:07 33.073753 -116.846363 76 10057ft 187kts
21-Sep-17 14:08 33.088874 -116.787220 76 10058ft 186kts
21-Sep-17 14:09 33.101114 -116.739261 76 10056ft 186kts
21-Sep-17 14:10 33.112506 -116.694544 77 10054ft 185kts
21-Sep-17 14:11 33.127467 -116.635729 77 10054ft 185kts
21-Sep-17 14:12 33.147225 -116.580107 39 10053ft 188kts
21-Sep-17 14:13 33.189234 -116.543092 34 10032ft 189kts
21-Sep-17 14:14 33.231894 -116.506096 33 9990ft 190kts
21-Sep-17 14:15 33.272658 -116.470637 32 9933ft 191kts
21-Sep-17 14:16 33.314761 -116.433991 32 9885ft 190kts
21-Sep-17 14:17 33.357527 -116.396821 31 9857ft 189kts
21-Sep-17 14:18 33.399830 -116.360055 31 9856ft 188kts
21-Sep-17 14:19 33.440228 -116.324755 32 9851ft 188kts
21-Sep-17 14:20 33.481987 -116.288205 32 9851ft 187kts
21-Sep-17 14:21 33.522661 -116.252567 32 9852ft 187kts
21-Sep-17 14:22 33.564837 -116.215565 32 9852ft 187kts
21-Sep-17 14:23 33.606399 -116.179079 32 9852ft 187kts
21-Sep-17 14:24 33.645997 -116.190614 299 7730ft 180kts
21-Sep-17 14:25 33.673228 -116.237463 301 4965ft 171kts
21-Sep-17 14:26 33.696204 -116.276806 302 3648ft 99kts
21-Sep-17 14:27 33.709335 -116.299629 303 3872ft 97kts
21-Sep-17 14:28 33.724860 -116.328219 301 3996ft 101kts
21-Sep-17 14:29 33.731920 -116.362021 278 4029ft 110kts
21-Sep-17 14:30 33.733044 -116.400399 280 3767ft 133kts
21-Sep-17 14:31 33.749932 -116.439378 334 2553ft 147kts
21-Sep-17 14:32 33.779935 -116.464502 337 1354ft 110kts
21-Sep-17 14:33 33.801335 -116.482562 326 862ft 87kts
21-Sep-17 14:34 33.820789 -116.499944 331 423ft 90kts
21-Sep-17 14:35 33.828739 -116.508099 269 426ft 0kts
21-Sep-17 14:36 33.828764 -116.508730 276 427ft 11kts
21-Sep-17 14:37 33.825608 -116.508295 269 420ft 16kts
21-Sep-17 14:38 33.825616 -116.508701 274 421ft 0kts
21-Sep-17 14:39 33.825616 -116.508701 274 421ft 0kts
21-Sep-17 14:40 33.825616 -116.508701 274 421ft 0kts
21-Sep-17 14:41 33.825616 -116.508701 274 421ft 0kts
21-Sep-17 14:42 33.825616 -116.508700 274 421ft 0kts
21-Sep-17 14:43 33.825616 -116.508700 274 421ft 0kts
21-Sep-17 14:44 33.825616 -116.508700 274 421ft 0kts
21-Sep-17 14:45 33.825616 -116.508700 274 421ft 0kts
21-Sep-17 14:46 33.825616 -116.508700 274 421ft 0kts
21-Sep-17 14:47 33.825616 -116.508700 274 421ft 0kts
21-Sep-17 14:48 33.825616 -116.508700 274 421ft 0kts
21-Sep-17 14:49 33.825616 -116.508700 274 421ft 0kts

Navigation Log

Ident Type
Flight plan parsing failed, navigation log unavailable